Time;durP1;ratioP1;P1;durP2;ratioP2;P2;SDS_P1;SDS_P2;PMS_P1;PMS_P2;Temp;Humidity;BMP_temperature;BMP_pressure;BME280_temperature;BME280_humidity;BME280_pressure;Samples;Min_cycle;Max_cycle;Signal;HPM_P1;HPM_P2
2023/08/25 00:00:38;;;;;;;17.63;12.60;;;;;;;;;;5047088;28;20041;-78
2023/08/25 00:03:07;;;;;;;15.02;11.18;;;;;;;;;;5047705;28;20392;-76
2023/08/25 00:05:40;;;;;;;11.90;10.43;;;;;;;;;;5056346;28;20186;-78
2023/08/25 00:08:06;;;;;;;15.15;11.70;;;;;;;;;;5055210;28;20503;-78
2023/08/25 00:10:33;;;;;;;15.30;11.30;;;;;;;;;;5055036;28;20045;-77
2023/08/25 00:12:59;;;;;;;13.57;12.18;;;;;;;;;;5055576;28;20375;-77
2023/08/25 00:15:25;;;;;;;16.95;12.15;;;;;;;;;;5053947;28;20048;-77
2023/08/25 00:17:53;;;;;;;14.43;11.32;;;;;;;;;;5053102;28;20056;-77
2023/08/25 00:20:19;;;;;;;12.25;9.48;;;;;;;;;;5055897;28;20052;-77
2023/08/25 00:22:45;;;;;;;16.17;12.25;;;;;;;;;;5050488;28;20045;-77
2023/08/25 00:25:11;;;;;;;15.43;12.18;;;;;;;;;;5055388;28;20102;-77
2023/08/25 00:27:38;;;;;;;14.75;11.85;;;;;;;;;;5055701;28;20072;-77
2023/08/25 00:30:04;;;;;;;13.23;11.75;;;;;;;;;;5056011;28;20052;-77
2023/08/25 00:32:30;;;;;;;18.02;12.68;;;;;;;;;;5055292;28;20120;-76
2023/08/25 00:34:56;;;;;;;15.38;11.98;;;;;;;;;;5055181;28;20091;-76
2023/08/25 00:37:22;;;;;;;14.88;12.23;;;;;;;;;;5055356;28;20047;-77
2023/08/25 00:39:48;;;;;;;16.02;13.45;;;;;;;;;;5054251;28;20037;-77
2023/08/25 00:42:14;;;;;;;15.35;12.55;;;;;;;;;;5043094;28;20483;-78
2023/08/25 00:44:40;;;;;;;16.08;13.07;;;;;;;;;;5054313;28;20156;-77
2023/08/25 00:47:06;;;;;;;14.93;12.95;;;;;;;;;;5053727;28;20100;-77
2023/08/25 00:49:33;;;;;;;15.52;13.80;;;;;;;;;;5051743;28;20033;-77
2023/08/25 00:51:59;;;;;;;15.90;12.52;;;;;;;;;;5063248;28;20438;-77
2023/08/25 00:54:27;;;;;;;14.10;12.52;;;;;;;;;;5043701;28;20041;-77
2023/08/25 00:56:53;;;;;;;14.43;12.30;;;;;;;;;;5055982;28;20036;-78
2023/08/25 00:59:20;;;;;;;15.70;12.93;;;;;;;;;;5055241;28;20392;-77
2023/08/25 01:01:46;;;;;;;18.85;14.82;;;;;;;;;;5052422;28;20037;-77
2023/08/25 01:04:13;;;;;;;18.00;14.70;;;;;;;;;;5052356;28;20495;-77
2023/08/25 01:06:39;;;;;;;17.63;13.88;;;;;;;;;;5061576;28;20049;-77
2023/08/25 01:09:10;;;;;;;14.57;13.07;;;;;;;;;;5056500;28;20468;-77
2023/08/25 01:12:00;;;;;;;17.20;15.40;;;;;;;;;;5075317;28;20049;-77
2023/08/25 01:14:35;;;;;;;18.23;16.30;;;;;;;;;;5076008;28;20044;-77
2023/08/25 01:17:15;;;;;;;16.15;14.38;;;;;;;;;;5060815;28;20064;-78
2023/08/25 01:19:50;;;;;;;16.20;14.50;;;;;;;;;;5052624;28;20041;-77
2023/08/25 01:22:20;;;;;;;18.13;14.93;;;;;;;;;;5050042;28;20045;-75
2023/08/25 01:24:48;;;;;;;17.67;14.68;;;;;;;;;;5054952;28;20110;-76
2023/08/25 01:27:14;;;;;;;17.80;15.38;;;;;;;;;;5045572;28;20045;-76
2023/08/25 01:29:43;;;;;;;16.88;15.02;;;;;;;;;;5054523;28;20041;-76
2023/08/25 01:32:09;;;;;;;19.35;15.85;;;;;;;;;;5054067;28;20106;-76
2023/08/25 01:34:36;;;;;;;17.25;14.93;;;;;;;;;;5053221;28;20447;-76
2023/08/25 01:37:10;;;;;;;17.13;15.32;;;;;;;;;;5052983;28;20404;-76
2023/08/25 01:39:37;;;;;;;16.35;14.63;;;;;;;;;;5048008;28;20056;-77
2023/08/25 01:42:05;;;;;;;17.02;15.27;;;;;;;;;;5052795;28;20051;-77
2023/08/25 01:44:32;;;;;;;18.15;16.25;;;;;;;;;;5052804;28;20096;-77
2023/08/25 01:47:04;;;;;;;16.05;13.52;;;;;;;;;;5051058;28;20051;-78
2023/08/25 01:49:30;;;;;;;20.23;16.63;;;;;;;;;;5054328;28;20120;-76
2023/08/25 01:51:56;;;;;;;17.80;15.40;;;;;;;;;;5051730;28;20045;-77
2023/08/25 01:54:22;;;;;;;16.38;14.68;;;;;;;;;;5045706;28;20045;-76
2023/08/25 01:56:49;;;;;;;19.05;17.15;;;;;;;;;;5051678;28;20045;-77
2023/08/25 01:59:15;;;;;;;19.17;17.17;;;;;;;;;;5052799;28;20049;-77
2023/08/25 02:01:41;;;;;;;18.60;16.70;;;;;;;;;;5053779;28;20053;-77
2023/08/25 02:04:07;;;;;;;17.17;14.50;;;;;;;;;;5054008;28;20052;-77
2023/08/25 02:06:33;;;;;;;21.80;19.40;;;;;;;;;;5054125;28;20053;-77
2023/08/25 02:08:59;;;;;;;19.83;17.83;;;;;;;;;;5054020;28;20084;-76
2023/08/25 02:11:26;;;;;;;20.08;18.08;;;;;;;;;;5053526;28;20095;-77
2023/08/25 02:13:52;;;;;;;21.23;19.13;;;;;;;;;;5037572;28;20382;-77
2023/08/25 02:16:18;;;;;;;18.95;17.05;;;;;;;;;;5042381;28;20479;-77
2023/08/25 02:18:44;;;;;;;20.70;18.58;;;;;;;;;;5048105;28;20037;-78
2023/08/25 02:21:10;;;;;;;18.98;17.02;;;;;;;;;;5045323;28;20048;-77
2023/08/25 02:23:36;;;;;;;20.73;18.73;;;;;;;;;;5053417;28;20124;-77
2023/08/25 02:26:02;;;;;;;19.10;17.05;;;;;;;;;;5053375;28;20499;-77
2023/08/25 02:28:28;;;;;;;20.02;17.90;;;;;;;;;;5051417;28;20072;-78
2023/08/25 02:30:54;;;;;;;20.48;18.58;;;;;;;;;;5054368;28;20041;-77
2023/08/25 02:33:20;;;;;;;22.10;19.80;;;;;;;;;;5057415;28;20041;-77
2023/08/25 02:35:46;;;;;;;23.48;21.15;;;;;;;;;;5057577;28;20045;-77
2023/08/25 02:38:12;;;;;;;23.50;21.05;;;;;;;;;;5057407;28;20106;-77
2023/08/25 02:40:39;;;;;;;22.67;20.10;;;;;;;;;;5056981;28;20467;-77
2023/08/25 02:43:05;;;;;;;24.02;21.73;;;;;;;;;;5054275;28;20491;-77
2023/08/25 02:45:32;;;;;;;22.60;20.30;;;;;;;;;;5051641;28;20037;-76
2023/08/25 02:47:58;;;;;;;25.15;22.42;;;;;;;;;;5054547;28;20071;-77
2023/08/25 02:50:24;;;;;;;24.80;22.15;;;;;;;;;;5056461;28;20037;-77
2023/08/25 02:52:50;;;;;;;22.63;20.33;;;;;;;;;;5055553;28;20095;-76
2023/08/25 02:55:19;;;;;;;24.80;22.13;;;;;;;;;;5056080;28;20103;-77
2023/08/25 02:57:45;;;;;;;26.20;23.52;;;;;;;;;;5057792;28;20079;-76
2023/08/25 03:00:23;;;;;;;26.50;22.35;;;;;;;;;;5058183;28;20063;-77
2023/08/25 03:02:49;;;;;;;26.50;23.65;;;;;;;;;;5055958;28;20129;-76
2023/08/25 03:05:15;;;;;;;24.50;21.90;;;;;;;;;;5048952;28;20052;-76
2023/08/25 03:07:41;;;;;;;26.35;23.63;;;;;;;;;;5038679;28;20060;-77
2023/08/25 03:10:07;;;;;;;25.45;22.83;;;;;;;;;;5056934;28;20491;-76
2023/08/25 03:12:34;;;;;;;27.15;24.35;;;;;;;;;;5055864;28;20032;-77
2023/08/25 03:15:00;;;;;;;26.02;23.48;;;;;;;;;;5054877;28;20514;-77
2023/08/25 03:17:26;;;;;;;27.15;22.77;;;;;;;;;;5050794;28;20037;-77
2023/08/25 03:19:52;;;;;;;25.75;23.02;;;;;;;;;;5038292;28;20046;-77
2023/08/25 03:22:18;;;;;;;22.73;20.33;;;;;;;;;;5056611;28;20094;-77
2023/08/25 03:24:44;;;;;;;27.08;24.35;;;;;;;;;;5077044;28;20048;-77
2023/08/25 03:27:11;;;;;;;27.27;23.25;;;;;;;;;;5059604;28;20041;-78
2023/08/25 03:29:38;;;;;;;23.50;21.02;;;;;;;;;;5055033;28;20052;-78
2023/08/25 03:32:04;;;;;;;25.35;22.75;;;;;;;;;;5054756;28;20079;-78
2023/08/25 03:34:30;;;;;;;26.42;23.75;;;;;;;;;;5056207;28;20056;-77
2023/08/25 03:36:56;;;;;;;27.85;25.10;;;;;;;;;;5055954;28;20126;-78
2023/08/25 03:39:22;;;;;;;29.05;25.02;;;;;;;;;;5039278;28;20119;-77
2023/08/25 03:41:48;;;;;;;24.92;22.33;;;;;;;;;;5055356;28;20087;-78
2023/08/25 03:44:14;;;;;;;25.27;22.58;;;;;;;;;;5047589;28;20446;-77
2023/08/25 03:46:40;;;;;;;29.55;26.48;;;;;;;;;;5054550;28;20041;-77
2023/08/25 03:49:06;;;;;;;30.15;26.85;;;;;;;;;;5045352;28;20048;-76
2023/08/25 03:51:32;;;;;;;28.40;25.25;;;;;;;;;;5047621;28;20040;-77
2023/08/25 03:53:59;;;;;;;28.58;25.23;;;;;;;;;;5057396;28;20050;-77
2023/08/25 03:56:25;;;;;;;30.67;25.55;;;;;;;;;;5057791;28;20079;-77
2023/08/25 03:58:51;;;;;;;30.75;26.88;;;;;;;;;;5052441;28;20120;-77
2023/08/25 04:01:17;;;;;;;27.85;25.15;;;;;;;;;;5052190;28;20388;-77
2023/08/25 04:03:43;;;;;;;29.75;26.77;;;;;;;;;;5035472;28;20056;-77
2023/08/25 04:06:09;;;;;;;30.83;27.30;;;;;;;;;;5035915;28;20064;-77
2023/08/25 04:08:35;;;;;;;29.42;26.35;;;;;;;;;;5036094;28;20519;-78
2023/08/25 04:11:01;;;;;;;25.98;23.27;;;;;;;;;;5052320;28;20491;-77
2023/08/25 04:13:27;;;;;;;29.25;26.13;;;;;;;;;;5054797;28;20041;-77
2023/08/25 04:15:55;;;;;;;32.15;27.48;;;;;;;;;;5056790;28;20049;-77
2023/08/25 04:18:21;;;;;;;31.60;28.30;;;;;;;;;;5049149;28;20053;-77
2023/08/25 04:20:47;;;;;;;33.05;29.58;;;;;;;;;;5054963;28;20052;-77
2023/08/25 04:23:13;;;;;;;30.90;27.70;;;;;;;;;;5054965;28;20045;-77
2023/08/25 04:25:39;;;;;;;31.75;28.25;;;;;;;;;;5049815;28;20060;-77
2023/08/25 04:28:05;;;;;;;31.65;28.23;;;;;;;;;;5053824;28;20048;-76
2023/08/25 04:30:31;;;;;;;25.02;22.40;;;;;;;;;;5047566;28;20072;-77
2023/08/25 04:32:57;;;;;;;36.00;31.15;;;;;;;;;;5053197;28;20045;-77
2023/08/25 04:35:23;;;;;;;32.58;28.30;;;;;;;;;;5047049;28;20124;-77
2023/08/25 04:37:50;;;;;;;33.53;29.77;;;;;;;;;;5054110;28;20044;-77
2023/08/25 04:40:20;;;;;;;36.00;32.03;;;;;;;;;;5049510;28;20056;-77
2023/08/25 04:42:46;;;;;;;35.08;31.38;;;;;;;;;;5049615;28;20041;-77
2023/08/25 04:45:13;;;;;;;33.90;30.25;;;;;;;;;;5053075;28;20045;-78
2023/08/25 04:47:39;;;;;;;35.08;30.83;;;;;;;;;;5053739;28;20033;-77
2023/08/25 04:50:07;;;;;;;49.80;38.53;;;;;;;;;;5053622;28;20532;-77
2023/08/25 04:52:36;;;;;;;42.40;36.85;;;;;;;;;;5042607;28;20091;-77
2023/08/25 04:55:03;;;;;;;43.15;36.03;;;;;;;;;;5052320;28;20041;-77
2023/08/25 04:57:29;;;;;;;50.00;41.10;;;;;;;;;;5047103;28;20544;-77
2023/08/25 04:59:55;;;;;;;40.60;34.13;;;;;;;;;;5051605;28;20049;-77
2023/08/25 05:02:21;;;;;;;46.85;38.38;;;;;;;;;;5046704;28;20059;-76
2023/08/25 05:04:47;;;;;;;52.22;40.25;;;;;;;;;;5063125;28;20044;-77
2023/08/25 05:07:13;;;;;;;57.75;44.05;;;;;;;;;;5042770;28;20076;-77
2023/08/25 05:09:40;;;;;;;48.85;38.55;;;;;;;;;;5041047;28;20143;-77
2023/08/25 05:12:06;;;;;;;48.42;40.17;;;;;;;;;;5053194;28;20037;-78
2023/08/25 05:14:32;;;;;;;45.03;39.95;;;;;;;;;;5052815;28;20061;-78
2023/08/25 05:17:00;;;;;;;47.20;38.83;;;;;;;;;;5051751;28;20057;-77
2023/08/25 05:19:26;;;;;;;50.55;39.25;;;;;;;;;;5052737;28;20056;-77
2023/08/25 05:21:52;;;;;;;53.47;39.88;;;;;;;;;;5063010;28;20041;-77
2023/08/25 05:24:22;;;;;;;57.42;43.40;;;;;;;;;;5069952;28;20059;-76
2023/08/25 05:26:51;;;;;;;49.58;39.72;;;;;;;;;;5047297;28;20118;-77
2023/08/25 05:29:20;;;;;;;44.33;37.22;;;;;;;;;;5048693;28;20052;-77
2023/08/25 05:31:47;;;;;;;45.35;39.33;;;;;;;;;;5053107;28;20056;-77
2023/08/25 05:34:13;;;;;;;54.33;43.28;;;;;;;;;;5053356;28;20045;-77
2023/08/25 05:36:39;;;;;;;46.13;39.72;;;;;;;;;;5046333;28;20048;-76
2023/08/25 05:39:05;;;;;;;50.70;41.53;;;;;;;;;;5053013;28;20049;-77
2023/08/25 05:41:31;;;;;;;50.15;42.53;;;;;;;;;;5051382;28;20075;-77
2023/08/25 05:43:58;;;;;;;43.85;37.17;;;;;;;;;;5050173;28;20113;-76
2023/08/25 05:46:24;;;;;;;50.83;41.78;;;;;;;;;;5052830;28;20064;-77
2023/08/25 05:48:50;;;;;;;48.17;39.42;;;;;;;;;;5052689;28;20488;-77
2023/08/25 05:51:16;;;;;;;44.00;38.88;;;;;;;;;;5052395;28;20127;-78
2023/08/25 05:53:42;;;;;;;46.88;40.50;;;;;;;;;;5053102;28;20048;-77
2023/08/25 05:56:09;;;;;;;47.03;40.00;;;;;;;;;;5051524;28;20045;-77
2023/08/25 05:58:35;;;;;;;42.63;36.58;;;;;;;;;;5043902;28;20053;-77
2023/08/25 06:01:01;;;;;;;47.22;41.15;;;;;;;;;;5051712;28;20137;-77
2023/08/25 06:03:27;;;;;;;47.40;40.83;;;;;;;;;;5049170;28;20051;-78
2023/08/25 06:05:54;;;;;;;49.13;42.45;;;;;;;;;;5049003;28;20044;-77
2023/08/25 06:08:20;;;;;;;51.30;41.15;;;;;;;;;;5057395;28;20049;-77
2023/08/25 06:10:46;;;;;;;42.33;36.83;;;;;;;;;;5050084;28;20049;-76
2023/08/25 06:13:13;;;;;;;41.13;36.60;;;;;;;;;;5045457;28;20080;-76
2023/08/25 06:15:39;;;;;;;45.33;39.10;;;;;;;;;;5052942;28;20052;-76
2023/08/25 06:18:05;;;;;;;39.05;34.97;;;;;;;;;;5050760;28;20053;-75
2023/08/25 06:20:31;;;;;;;43.55;38.90;;;;;;;;;;5053281;28;20049;-76
2023/08/25 06:22:57;;;;;;;39.22;34.78;;;;;;;;;;5055686;28;20074;-76
2023/08/25 06:25:24;;;;;;;40.60;35.78;;;;;;;;;;5056082;28;20041;-76
2023/08/25 06:27:50;;;;;;;42.38;37.03;;;;;;;;;;5053669;28;20048;-77
2023/08/25 06:30:19;;;;;;;43.58;37.28;;;;;;;;;;5075997;28;20048;-76
2023/08/25 06:32:45;;;;;;;40.20;35.80;;;;;;;;;;5050870;28;20052;-76
2023/08/25 06:35:12;;;;;;;38.10;33.92;;;;;;;;;;5055176;28;20080;-76
2023/08/25 06:37:38;;;;;;;39.13;33.75;;;;;;;;;;5054462;28;20045;-77
2023/08/25 06:40:07;;;;;;;36.33;32.20;;;;;;;;;;5055403;28;20048;-77
2023/08/25 06:42:37;;;;;;;37.00;33.03;;;;;;;;;;5055330;28;20175;-77
2023/08/25 06:45:03;;;;;;;35.28;31.67;;;;;;;;;;5055495;28;20064;-77
2023/08/25 06:47:30;;;;;;;38.05;34.00;;;;;;;;;;5066985;28;20052;-76
2023/08/25 06:49:56;;;;;;;36.33;32.40;;;;;;;;;;5055597;28;20057;-76
2023/08/25 06:52:23;;;;;;;34.33;30.67;;;;;;;;;;5053654;28;20056;-77
2023/08/25 06:54:49;;;;;;;37.30;32.90;;;;;;;;;;5054723;28;20055;-79
2023/08/25 06:57:15;;;;;;;37.95;32.67;;;;;;;;;;5054332;28;20044;-77
2023/08/25 06:59:41;;;;;;;36.17;31.10;;;;;;;;;;5050172;28;20060;-76
2023/08/25 07:02:08;;;;;;;37.83;32.67;;;;;;;;;;5046851;28;20130;-77
2023/08/25 07:04:34;;;;;;;36.65;32.28;;;;;;;;;;5046034;28;20041;-76
2023/08/25 07:07:00;;;;;;;34.78;31.08;;;;;;;;;;5052741;28;20115;-77
2023/08/25 07:09:26;;;;;;;37.22;32.58;;;;;;;;;;5055177;28;20080;-76
2023/08/25 07:11:52;;;;;;;35.13;29.92;;;;;;;;;;5061375;28;20044;-77
2023/08/25 07:14:18;;;;;;;34.20;30.63;;;;;;;;;;5050998;28;20045;-76
2023/08/25 07:16:45;;;;;;;34.20;30.55;;;;;;;;;;5052747;28;20051;-70
2023/08/25 07:19:11;;;;;;;35.20;31.52;;;;;;;;;;5054337;28;20059;-70
2023/08/25 07:21:37;;;;;;;34.20;30.52;;;;;;;;;;5051990;28;20044;-71
2023/08/25 07:24:03;;;;;;;36.38;29.77;;;;;;;;;;5045786;28;20059;-71
2023/08/25 07:26:29;;;;;;;32.40;29.00;;;;;;;;;;5054562;28;20045;-71
2023/08/25 07:28:55;;;;;;;33.67;30.13;;;;;;;;;;5053473;28;20040;-71
2023/08/25 07:31:22;;;;;;;36.10;31.08;;;;;;;;;;5054537;28;20055;-71
2023/08/25 07:33:48;;;;;;;36.22;31.80;;;;;;;;;;5052404;28;20041;-71
2023/08/25 07:36:14;;;;;;;35.53;30.83;;;;;;;;;;5045923;28;20045;-71
2023/08/25 07:38:40;;;;;;;35.60;31.58;;;;;;;;;;5051804;28;20053;-71
2023/08/25 07:41:06;;;;;;;33.60;30.10;;;;;;;;;;5052918;28;20155;-71
2023/08/25 07:43:32;;;;;;;33.42;29.92;;;;;;;;;;5054202;28;20467;-71
2023/08/25 07:45:58;;;;;;;33.38;29.77;;;;;;;;;;5053259;28;20041;-71
2023/08/25 07:48:24;;;;;;;36.17;31.95;;;;;;;;;;5031037;28;20395;-71
2023/08/25 07:50:50;;;;;;;32.75;28.65;;;;;;;;;;5053783;28;20053;-71
2023/08/25 07:53:16;;;;;;;111.85;32.60;;;;;;;;;;5053848;28;20045;-70
2023/08/25 07:55:42;;;;;;;31.40;27.88;;;;;;;;;;5053886;28;20144;-70
2023/08/25 07:58:09;;;;;;;34.92;30.63;;;;;;;;;;5049916;28;20110;-70
2023/08/25 08:00:36;;;;;;;35.10;30.42;;;;;;;;;;5045825;28;20089;-70
2023/08/25 08:03:03;;;;;;;34.85;29.65;;;;;;;;;;5041684;28;20101;-69
2023/08/25 08:05:29;;;;;;;34.40;30.63;;;;;;;;;;5033770;28;20053;-69
2023/08/25 08:07:56;;;;;;;35.30;30.50;;;;;;;;;;5048962;28;20110;-71
2023/08/25 08:10:22;;;;;;;34.90;29.90;;;;;;;;;;5047870;28;20045;-71
2023/08/25 08:12:48;;;;;;;34.17;29.48;;;;;;;;;;5041325;28;20044;-71
2023/08/25 08:15:14;;;;;;;35.40;30.42;;;;;;;;;;5042320;28;20088;-71
2023/08/25 08:17:40;;;;;;;35.47;30.15;;;;;;;;;;5033411;28;20052;-71
2023/08/25 08:20:11;;;;;;;35.47;29.63;;;;;;;;;;5044373;28;20047;-71
2023/08/25 08:22:37;;;;;;;35.78;29.42;;;;;;;;;;5047473;28;20036;-70
2023/08/25 08:25:05;;;;;;;33.80;29.63;;;;;;;;;;5053366;28;20045;-70
2023/08/25 08:27:32;;;;;;;35.40;30.67;;;;;;;;;;5050875;28;20095;-69
2023/08/25 08:29:58;;;;;;;35.15;29.80;;;;;;;;;;5047393;28;20049;-70
2023/08/25 08:32:24;;;;;;;36.72;29.30;;;;;;;;;;5042832;28;20049;-70
2023/08/25 08:34:50;;;;;;;32.53;29.20;;;;;;;;;;5053101;28;20127;-70
2023/08/25 08:37:16;;;;;;;34.60;28.48;;;;;;;;;;5053235;28;20048;-70
2023/08/25 08:39:44;;;;;;;35.30;26.58;;;;;;;;;;5047228;28;20599;-70
2023/08/25 08:42:13;;;;;;;35.40;28.88;;;;;;;;;;5039666;28;20056;-70
2023/08/25 08:44:43;;;;;;;37.40;29.35;;;;;;;;;;5048137;28;20069;-70
2023/08/25 08:47:09;;;;;;;36.57;29.17;;;;;;;;;;5040291;28;20049;-70
2023/08/25 08:49:36;;;;;;;37.60;30.77;;;;;;;;;;5051440;28;20041;-70
2023/08/25 08:52:05;;;;;;;41.42;33.63;;;;;;;;;;5049711;28;20044;-70
2023/08/25 08:54:32;;;;;;;38.55;33.17;;;;;;;;;;5051692;28;20116;-70
2023/08/25 08:57:00;;;;;;;43.67;32.67;;;;;;;;;;5046344;28;20116;-70
2023/08/25 08:59:26;;;;;;;42.78;32.78;;;;;;;;;;5049782;28;20079;-70
2023/08/25 09:01:53;;;;;;;40.35;33.38;;;;;;;;;;5046401;28;20491;-71
2023/08/25 09:04:23;;;;;;;39.63;32.85;;;;;;;;;;5046881;28;20381;-70
2023/08/25 09:06:51;;;;;;;49.00;35.22;;;;;;;;;;5043884;28;21147;-70
2023/08/25 09:09:19;;;;;;;40.15;33.28;;;;;;;;;;5051175;28;20061;-70
2023/08/25 09:11:46;;;;;;;42.28;33.10;;;;;;;;;;5043175;28;20097;-71
2023/08/25 09:14:13;;;;;;;41.08;33.80;;;;;;;;;;5046514;28;20037;-70
2023/08/25 09:16:39;;;;;;;35.47;31.65;;;;;;;;;;5047838;28;20050;-73
2023/08/25 09:19:06;;;;;;;39.50;33.75;;;;;;;;;;5050775;28;20401;-70
2023/08/25 09:21:32;;;;;;;36.33;32.53;;;;;;;;;;5052578;28;20052;-70
2023/08/25 09:23:59;;;;;;;40.05;33.13;;;;;;;;;;5052218;28;20045;-71
2023/08/25 09:26:26;;;;;;;37.63;33.70;;;;;;;;;;5046114;28;20061;-71
2023/08/25 09:28:53;;;;;;;36.47;32.70;;;;;;;;;;5032611;28;20071;-70
2023/08/25 09:31:23;;;;;;;35.75;31.95;;;;;;;;;;5049243;28;20121;-71
2023/08/25 09:33:58;;;;;;;38.85;32.55;;;;;;;;;;5032709;28;20467;-70
2023/08/25 09:36:24;;;;;;;35.58;31.77;;;;;;;;;;5025852;28;20048;-70
2023/08/25 09:38:50;;;;;;;35.40;31.63;;;;;;;;;;5032377;28;20049;-70
2023/08/25 09:41:23;;;;;;;35.80;31.75;;;;;;;;;;5052232;28;20053;-70
2023/08/25 09:43:49;;;;;;;36.60;32.67;;;;;;;;;;5052029;28;20041;-70
2023/08/25 09:46:15;;;;;;;36.90;32.25;;;;;;;;;;5052309;28;20187;-74
2023/08/25 09:48:45;;;;;;;52.83;36.45;;;;;;;;;;5040083;28;20054;-70
2023/08/25 09:51:11;;;;;;;47.30;32.83;;;;;;;;;;5035805;28;20053;-71
2023/08/25 09:53:39;;;;;;;62.85;34.40;;;;;;;;;;5041146;28;20106;-71
2023/08/25 09:56:06;;;;;;;42.17;33.38;;;;;;;;;;5055455;28;20044;-70
2023/08/25 09:58:32;;;;;;;35.53;30.85;;;;;;;;;;5056013;28;20060;-69
2023/08/25 10:00:58;;;;;;;40.90;32.40;;;;;;;;;;5055717;28;20071;-72
2023/08/25 10:03:25;;;;;;;42.42;32.03;;;;;;;;;;5053982;28;20053;-69
2023/08/25 10:05:51;;;;;;;33.20;29.00;;;;;;;;;;5055261;28;20048;-71
2023/08/25 10:08:17;;;;;;;37.58;30.35;;;;;;;;;;5054899;28;20045;-69
2023/08/25 10:10:44;;;;;;;36.53;31.08;;;;;;;;;;5055687;28;20379;-71
2023/08/25 10:13:14;;;;;;;38.83;31.58;;;;;;;;;;5055843;28;20110;-74
2023/08/25 10:15:41;;;;;;;52.20;30.33;;;;;;;;;;5054999;28;20111;-70
2023/08/25 10:18:09;;;;;;;47.05;32.08;;;;;;;;;;5053522;28;20131;-70
2023/08/25 10:20:35;;;;;;;37.03;32.60;;;;;;;;;;5055442;28;20041;-76
2023/08/25 10:23:07;;;;;;;38.78;32.10;;;;;;;;;;5055577;28;20049;-75
2023/08/25 10:25:33;;;;;;;40.97;32.42;;;;;;;;;;5044700;28;20052;-75
2023/08/25 10:28:01;;;;;;;36.25;31.75;;;;;;;;;;5046277;28;20155;-76
2023/08/25 10:30:28;;;;;;;38.45;33.25;;;;;;;;;;5045255;28;20054;-77
2023/08/25 10:33:01;;;;;;;36.90;32.78;;;;;;;;;;5037330;28;20061;-75
2023/08/25 10:35:39;;;;;;;49.17;32.75;;;;;;;;;;5047026;28;20111;-76
2023/08/25 10:38:10;;;;;;;39.08;30.67;;;;;;;;;;5054734;28;20041;-76
2023/08/25 10:40:43;;;;;;;44.42;34.13;;;;;;;;;;5047154;28;20403;-76
2023/08/25 10:43:09;;;;;;;44.42;33.53;;;;;;;;;;5051537;28;20112;-77
2023/08/25 10:45:36;;;;;;;40.75;34.45;;;;;;;;;;5050141;28;20056;-76
2023/08/25 10:48:02;;;;;;;41.90;34.90;;;;;;;;;;5051157;28;20045;-75
2023/08/25 10:50:29;;;;;;;36.00;32.28;;;;;;;;;;5055033;28;20090;-75
2023/08/25 10:52:55;;;;;;;37.63;31.80;;;;;;;;;;5053550;28;20095;-76
2023/08/25 10:55:25;;;;;;;36.17;32.25;;;;;;;;;;5055248;28;20452;-75
2023/08/25 10:57:52;;;;;;;35.00;30.90;;;;;;;;;;5055261;28;20052;-76
2023/08/25 11:00:45;;;;;;;32.60;29.30;;;;;;;;;;5050106;28;20518;-75
2023/08/25 11:03:12;;;;;;;25.83;22.08;;;;;;;;;;5050823;28;20060;-75
2023/08/25 11:05:43;;;;;;;25.63;21.08;;;;;;;;;;5054235;28;20049;-75
2023/08/25 11:08:25;;;;;;;28.40;21.00;;;;;;;;;;5046726;28;20041;-76
2023/08/25 11:11:12;;;;;;;28.23;24.85;;;;;;;;;;5033152;28;20099;-76
2023/08/25 11:13:40;;;;;;;27.45;24.35;;;;;;;;;;5053105;28;20048;-76
2023/08/25 11:16:07;;;;;;;24.20;21.52;;;;;;;;;;5045579;28;20083;-77
2023/08/25 11:18:33;;;;;;;28.63;21.98;;;;;;;;;;5063182;28;20037;-76
2023/08/25 11:21:00;;;;;;;28.58;22.88;;;;;;;;;;5054924;28;20475;-77
2023/08/25 11:23:34;;;;;;;36.80;25.13;;;;;;;;;;5055040;28;20041;-76
2023/08/25 11:26:00;;;;;;;29.02;23.83;;;;;;;;;;5051133;28;20440;-75
2023/08/25 11:28:27;;;;;;;26.20;20.48;;;;;;;;;;5048961;28;20095;-75
2023/08/25 11:30:53;;;;;;;35.78;19.80;;;;;;;;;;5043456;28;20068;-76
2023/08/25 11:33:20;;;;;;;22.17;18.13;;;;;;;;;;5053052;28;20063;-75
2023/08/25 11:35:46;;;;;;;21.48;16.67;;;;;;;;;;5054400;28;20041;-75
2023/08/25 11:38:13;;;;;;;26.33;16.92;;;;;;;;;;5046749;28;20059;-76
2023/08/25 11:40:39;;;;;;;21.02;17.00;;;;;;;;;;5054859;28;20045;-76
2023/08/25 11:43:06;;;;;;;21.45;18.02;;;;;;;;;;5051765;28;20049;-76
2023/08/25 11:45:32;;;;;;;22.05;14.80;;;;;;;;;;5040366;28;20047;-75
2023/08/25 11:47:58;;;;;;;18.27;12.18;;;;;;;;;;5050659;28;20107;-75
2023/08/25 11:50:25;;;;;;;20.55;8.93;;;;;;;;;;5041860;28;20094;-75
2023/08/25 11:52:51;;;;;;;13.95;9.05;;;;;;;;;;5051543;28;20048;-75
2023/08/25 11:55:17;;;;;;;16.55;10.23;;;;;;;;;;5053117;28;20045;-75
2023/08/25 11:57:50;;;;;;;16.67;13.18;;;;;;;;;;5043316;28;20132;-76
2023/08/25 12:00:17;;;;;;;17.73;13.75;;;;;;;;;;5044368;28;20044;-74
2023/08/25 12:02:47;;;;;;;19.25;13.15;;;;;;;;;;5044962;28;20430;-75
2023/08/25 12:05:13;;;;;;;14.50;13.10;;;;;;;;;;5040734;28;20503;-75
2023/08/25 12:07:41;;;;;;;16.05;12.75;;;;;;;;;;5041084;28;20041;-77
2023/08/25 12:10:07;;;;;;;15.07;11.85;;;;;;;;;;5043706;28;20118;-76
2023/08/25 12:12:38;;;;;;;17.58;9.00;;;;;;;;;;5052243;28;20049;-75
2023/08/25 12:15:07;;;;;;;11.57;7.35;;;;;;;;;;5040770;28;20041;-75
2023/08/25 12:17:35;;;;;;;9.20;6.38;;;;;;;;;;5046241;28;20431;-75
2023/08/25 12:20:10;;;;;;;10.20;6.22;;;;;;;;;;5049081;28;20044;-75
2023/08/25 12:22:49;;;;;;;9.18;5.32;;;;;;;;;;5046322;28;20037;-75
2023/08/25 12:25:15;;;;;;;22.02;7.03;;;;;;;;;;5043234;28;20187;-76
2023/08/25 12:27:41;;;;;;;22.77;6.03;;;;;;;;;;5049138;28;20534;-76
2023/08/25 12:30:07;;;;;;;13.45;5.20;;;;;;;;;;5049187;28;20427;-76
2023/08/25 12:32:33;;;;;;;8.95;5.10;;;;;;;;;;5050727;28;20040;-76
2023/08/25 12:34:59;;;;;;;7.93;4.72;;;;;;;;;;5046542;28;20045;-77
2023/08/25 12:37:26;;;;;;;8.68;4.97;;;;;;;;;;5047726;28;20122;-75
2023/08/25 12:39:52;;;;;;;9.57;5.97;;;;;;;;;;5043423;28;20053;-76
2023/08/25 12:42:18;;;;;;;11.35;5.63;;;;;;;;;;5022540;28;20041;-75
2023/08/25 12:44:45;;;;;;;11.40;6.78;;;;;;;;;;5047827;28;20045;-75
2023/08/25 12:47:11;;;;;;;10.30;5.97;;;;;;;;;;5045058;28;20071;-74
2023/08/25 12:49:40;;;;;;;11.50;7.93;;;;;;;;;;5045491;28;20045;-74
2023/08/25 12:52:06;;;;;;;11.98;7.82;;;;;;;;;;5038768;28;20102;-75
2023/08/25 12:54:32;;;;;;;11.32;8.55;;;;;;;;;;5049769;28;20510;-75
2023/08/25 12:56:58;;;;;;;10.23;8.07;;;;;;;;;;5051331;28;20041;-75
2023/08/25 12:59:24;;;;;;;10.50;9.40;;;;;;;;;;5041616;28;20430;-74
2023/08/25 13:01:51;;;;;;;10.55;8.73;;;;;;;;;;5045156;28;20041;-74
2023/08/25 13:04:17;;;;;;;12.48;9.00;;;;;;;;;;5044489;28;20064;-75
2023/08/25 13:06:43;;;;;;;11.73;8.93;;;;;;;;;;5045837;28;20045;-75
2023/08/25 13:09:09;;;;;;;12.15;9.93;;;;;;;;;;5039800;28;20067;-75
2023/08/25 13:11:36;;;;;;;11.48;9.30;;;;;;;;;;5035005;28;20334;-75
2023/08/25 13:14:02;;;;;;;12.63;8.98;;;;;;;;;;5043539;28;20045;-75
2023/08/25 13:16:28;;;;;;;11.80;7.82;;;;;;;;;;5039212;28;20083;-75
2023/08/25 13:18:55;;;;;;;9.40;5.63;;;;;;;;;;5039958;28;20105;-76
2023/08/25 13:21:21;;;;;;;10.15;6.40;;;;;;;;;;5039744;28;20060;-75
2023/08/25 13:23:47;;;;;;;10.73;6.45;;;;;;;;;;5039183;28;20071;-75
2023/08/25 13:26:13;;;;;;;11.43;6.60;;;;;;;;;;5039475;28;20145;-75
2023/08/25 13:28:39;;;;;;;9.57;7.13;;;;;;;;;;5051289;28;20120;-76
2023/08/25 13:31:05;;;;;;;9.07;6.88;;;;;;;;;;5050006;28;20078;-75
2023/08/25 13:33:31;;;;;;;9.35;7.75;;;;;;;;;;5051599;28;20057;-75
2023/08/25 13:36:01;;;;;;;10.30;8.90;;;;;;;;;;5051385;28;20045;-74
2023/08/25 13:38:27;;;;;;;11.77;10.55;;;;;;;;;;5048684;28;20080;-74
2023/08/25 13:40:53;;;;;;;12.15;10.23;;;;;;;;;;5047825;28;20087;-75
2023/08/25 13:43:19;;;;;;;14.38;12.98;;;;;;;;;;5051456;28;20053;-75
2023/08/25 13:45:45;;;;;;;15.07;13.65;;;;;;;;;;5044129;28;20045;-74
2023/08/25 13:48:11;;;;;;;18.20;16.40;;;;;;;;;;5045612;28;20483;-74
2023/08/25 13:50:38;;;;;;;19.98;18.00;;;;;;;;;;5048416;28;20056;-75
2023/08/25 13:53:05;;;;;;;22.23;20.05;;;;;;;;;;5050289;28;20056;-75
2023/08/25 13:55:31;;;;;;;26.85;24.35;;;;;;;;;;5049224;28;20037;-75
2023/08/25 13:57:58;;;;;;;31.50;28.65;;;;;;;;;;5044735;28;20048;-74
2023/08/25 14:00:24;;;;;;;27.33;24.88;;;;;;;;;;5040069;28;20049;-75
2023/08/25 14:02:50;;;;;;;33.42;30.40;;;;;;;;;;5048161;28;20060;-75
2023/08/25 14:05:17;;;;;;;36.38;33.28;;;;;;;;;;5048232;28;20506;-74
2023/08/25 14:07:44;;;;;;;35.00;31.80;;;;;;;;;;5044263;28;20037;-76
2023/08/25 14:10:10;;;;;;;36.72;33.42;;;;;;;;;;5036228;28;20049;-74
2023/08/25 14:12:39;;;;;;;41.22;37.67;;;;;;;;;;5043780;28;20050;-74
2023/08/25 14:15:07;;;;;;;39.63;36.22;;;;;;;;;;5045457;28;20061;-75
2023/08/25 14:17:33;;;;;;;43.85;40.15;;;;;;;;;;5044576;28;20055;-75